createdAt,value
2019-03-23T00:01:10.488Z,58.34
2019-03-23T00:03:40.545Z,58.48
2019-03-23T00:06:10.623Z,58.42
2019-03-23T00:08:40.714Z,58.70
2019-03-23T00:11:10.744Z,58.70
2019-03-23T00:13:40.818Z,59.05
2019-03-23T00:16:10.872Z,58.94
2019-03-23T00:18:41.939Z,59.29
2019-03-23T00:21:12.000Z,59.60
2019-03-23T00:23:42.066Z,59.51
2019-03-23T00:26:13.310Z,59.23
2019-03-23T00:28:43.503Z,59.01
2019-03-23T00:31:13.563Z,58.61
2019-03-23T00:33:43.658Z,58.56
2019-03-23T00:36:13.708Z,58.17
2019-03-23T00:38:43.774Z,58.26
2019-03-23T00:41:13.847Z,58.26
2019-03-23T00:43:43.931Z,58.29
2019-03-23T00:46:13.994Z,58.28
2019-03-23T00:48:44.050Z,58.21
2019-03-23T00:51:14.142Z,57.86
2019-03-23T00:53:44.196Z,57.54
2019-03-23T00:56:16.516Z,57.69
2019-03-23T00:58:46.052Z,57.09
2019-03-23T01:01:16.666Z,57.60
2019-03-23T01:03:46.725Z,57.52
2019-03-23T01:06:16.826Z,57.47
2019-03-23T01:08:46.871Z,56.92
2019-03-23T01:11:16.949Z,57.22
2019-03-23T01:13:47.009Z,57.20
2019-03-23T01:16:17.167Z,56.88
2019-03-23T01:18:47.213Z,57.15
2019-03-23T01:21:17.356Z,57.12
2019-03-23T01:23:47.410Z,57.01
2019-03-23T01:26:17.490Z,57.16
2019-03-23T01:28:47.560Z,56.90
2019-03-23T01:31:17.640Z,57.14
2019-03-23T01:33:47.735Z,56.99
2019-03-23T01:36:17.841Z,57.14
2019-03-23T01:38:47.871Z,56.90
2019-03-23T01:41:17.952Z,57.13
2019-03-23T01:43:48.007Z,57.11
2019-03-23T01:46:19.064Z,56.94
2019-03-23T01:48:49.119Z,57.00
2019-03-23T01:51:19.207Z,57.42
2019-03-23T01:53:49.262Z,57.20
2019-03-23T01:56:19.336Z,57.33
2019-03-23T01:58:49.401Z,56.51
2019-03-23T02:01:19.474Z,56.26
2019-03-23T02:03:49.530Z,56.47
2019-03-23T02:06:19.660Z,56.54
2019-03-23T02:08:49.721Z,56.54
2019-03-23T02:11:19.768Z,56.50
2019-03-23T02:13:49.856Z,56.50
2019-03-23T02:16:19.905Z,56.37
2019-03-23T02:18:49.996Z,55.91
2019-03-23T02:21:20.047Z,56.45
2019-03-23T02:23:50.117Z,56.46
2019-03-23T02:26:20.161Z,56.02
2019-03-23T02:28:50.233Z,56.71
2019-03-23T02:31:20.296Z,56.60
2019-03-23T02:33:50.353Z,56.61
2019-03-23T02:36:20.410Z,56.80
2019-03-23T02:38:50.459Z,56.64
2019-03-23T02:41:20.547Z,56.81
2019-03-23T02:43:50.616Z,56.95
2019-03-23T02:46:20.777Z,57.27
2019-03-23T02:48:50.837Z,57.69
2019-03-23T02:51:21.891Z,58.15
2019-03-23T02:53:51.936Z,58.81
2019-03-23T02:56:22.028Z,59.14
2019-03-23T02:58:53.045Z,59.90
2019-03-23T03:01:23.171Z,60.60
2019-03-23T03:03:53.240Z,61.16
2019-03-23T03:06:23.313Z,61.26
2019-03-23T03:08:54.340Z,61.73
2019-03-23T03:11:24.389Z,62.41
2019-03-23T03:13:54.478Z,63.32
2019-03-23T03:16:24.521Z,64.20
2019-03-23T03:18:54.629Z,64.33
2019-03-23T03:21:24.684Z,64.55
2019-03-23T03:23:54.777Z,65.04
2019-03-23T03:26:24.839Z,65.71
2019-03-23T03:28:54.920Z,66.56
2019-03-23T03:31:24.978Z,66.53
2019-03-23T03:33:55.065Z,67.40
2019-03-23T03:36:25.105Z,67.62
2019-03-23T03:38:55.184Z,68.82
2019-03-23T03:41:25.235Z,69.05
2019-03-23T03:43:55.378Z,69.54
2019-03-23T03:46:25.426Z,69.82
2019-03-23T03:48:55.496Z,70.14
2019-03-23T03:51:25.570Z,70.52
2019-03-23T03:53:55.632Z,70.68
2019-03-23T03:56:25.712Z,70.60
2019-03-23T03:58:55.767Z,70.06
2019-03-23T04:01:25.857Z,70.27
2019-03-23T04:03:55.911Z,70.27
2019-03-23T04:06:26.010Z,69.58
2019-03-23T04:08:56.065Z,69.31
2019-03-23T04:11:26.181Z,68.57
2019-03-23T04:13:56.251Z,68.27
2019-03-23T04:16:26.353Z,68.79
2019-03-23T04:18:56.418Z,68.66
2019-03-23T04:21:26.793Z,68.90
2019-03-23T04:23:56.908Z,69.02
2019-03-23T04:26:27.002Z,69.27
2019-03-23T04:28:57.150Z,69.36
2019-03-23T04:31:27.206Z,69.68
2019-03-23T04:33:57.297Z,69.64
2019-03-23T04:36:27.381Z,69.89
2019-03-23T04:38:57.514Z,69.32
2019-03-23T04:41:27.582Z,69.38
2019-03-23T04:43:57.697Z,69.39
2019-03-23T04:46:27.755Z,68.88
2019-03-23T04:48:57.873Z,69.23
2019-03-23T04:51:27.985Z,70.34
2019-03-23T04:53:58.097Z,70.52
2019-03-23T04:56:28.161Z,70.19
2019-03-23T04:58:58.221Z,69.41
2019-03-23T05:01:28.272Z,69.06
2019-03-23T05:03:58.356Z,69.11
2019-03-23T05:06:28.415Z,69.09
2019-03-23T05:08:58.497Z,68.95
2019-03-23T05:11:28.555Z,68.95
2019-03-23T05:13:58.629Z,68.91
2019-03-23T05:16:29.495Z,68.36
2019-03-23T05:18:59.585Z,68.27
2019-03-23T05:21:29.645Z,68.25
2019-03-23T05:23:59.724Z,68.27
2019-03-23T05:26:29.789Z,68.40
2019-03-23T05:28:59.867Z,68.35
2019-03-23T05:31:29.919Z,67.77
2019-03-23T05:34:00.006Z,67.88
2019-03-23T05:36:30.060Z,67.47
2019-03-23T05:39:00.148Z,67.46
2019-03-23T05:41:30.985Z,67.85
2019-03-23T05:44:01.055Z,67.96
2019-03-23T05:46:32.075Z,67.52
2019-03-23T05:49:02.161Z,67.52
2019-03-23T05:51:32.208Z,67.40
2019-03-23T05:54:02.360Z,67.49
2019-03-23T05:56:32.418Z,67.35
2019-03-23T05:59:02.496Z,67.10
2019-03-23T06:01:32.541Z,66.85
2019-03-23T06:04:02.621Z,67.17
2019-03-23T06:06:32.669Z,67.95
2019-03-23T06:09:02.843Z,68.30
2019-03-23T06:11:32.894Z,68.12
2019-03-23T06:14:02.982Z,67.76
2019-03-23T06:16:33.042Z,67.23
2019-03-23T06:19:03.117Z,67.65
2019-03-23T06:21:33.174Z,67.79
2019-03-23T06:24:03.252Z,67.80
2019-03-23T06:26:33.305Z,67.86
2019-03-23T06:29:03.376Z,68.45
2019-03-23T06:31:33.430Z,68.56
2019-03-23T06:34:03.595Z,68.65
2019-03-23T06:36:33.641Z,68.79
2019-03-23T06:39:05.911Z,69.07
2019-03-23T06:41:36.018Z,68.96
2019-03-23T06:44:06.086Z,68.96
2019-03-23T06:46:36.163Z,68.95
2019-03-23T06:49:06.227Z,69.29
2019-03-23T06:51:37.279Z,68.97
2019-03-23T06:54:07.355Z,68.77
2019-03-23T06:56:37.436Z,68.81
2019-03-23T06:59:07.495Z,68.61
2019-03-23T07:01:37.564Z,68.41
2019-03-23T07:04:07.624Z,68.08
2019-03-23T07:06:37.709Z,68.20
2019-03-23T07:09:15.801Z,68.46
2019-03-23T07:11:39.877Z,68.10
2019-03-23T07:14:09.938Z,68.48
2019-03-23T07:16:40.009Z,68.28
2019-03-23T07:19:10.067Z,68.02
2019-03-23T07:21:40.135Z,68.02
2019-03-23T07:24:10.239Z,68.13
2019-03-23T07:26:40.347Z,67.43
2019-03-23T07:29:10.446Z,67.44
2019-03-23T07:31:40.560Z,67.62
2019-03-23T07:34:10.690Z,67.04
2019-03-23T07:36:40.775Z,67.17
2019-03-23T07:39:10.942Z,67.21
2019-03-23T07:41:41.026Z,67.44
2019-03-23T07:44:11.114Z,67.78
2019-03-23T07:46:41.256Z,68.29
2019-03-23T07:49:11.356Z,68.78
2019-03-23T07:51:41.419Z,69.35
2019-03-23T07:54:11.503Z,69.61
2019-03-23T07:56:41.667Z,68.92
2019-03-23T07:59:11.782Z,68.57
2019-03-23T08:01:41.859Z,68.26
2019-03-23T08:04:11.950Z,68.13
2019-03-23T08:06:42.015Z,68.57
2019-03-23T08:09:20.364Z,69.03
2019-03-23T08:11:44.817Z,68.90
2019-03-23T08:14:14.928Z,69.25
2019-03-23T08:16:45.002Z,69.74
2019-03-23T08:19:16.137Z,69.69
2019-03-23T08:21:46.210Z,70.21
2019-03-23T08:24:16.294Z,70.60
2019-03-23T08:26:46.372Z,70.61
2019-03-23T08:29:16.470Z,70.69
2019-03-23T08:31:46.546Z,71.53
2019-03-23T08:34:16.759Z,71.72
2019-03-23T08:36:46.849Z,71.46
2019-03-23T08:39:16.910Z,70.78
2019-03-23T08:41:46.985Z,70.26
2019-03-23T08:44:17.074Z,69.87
2019-03-23T08:46:47.124Z,70.01
2019-03-23T08:49:17.202Z,69.25
2019-03-23T08:51:47.274Z,68.85
2019-03-23T08:54:17.353Z,68.50
2019-03-23T08:56:47.462Z,67.95
2019-03-23T08:59:17.700Z,67.70
2019-03-23T09:01:47.758Z,67.36
2019-03-23T09:04:17.955Z,67.51
2019-03-23T09:06:48.004Z,67.04
2019-03-23T09:09:18.089Z,66.66
2019-03-23T09:11:48.235Z,66.23
2019-03-23T09:14:19.271Z,65.37
2019-03-23T09:16:49.417Z,65.99
2019-03-23T09:19:19.494Z,65.83
2019-03-23T09:21:49.625Z,65.39
2019-03-23T09:24:19.720Z,64.78
2019-03-23T09:26:49.935Z,64.18
2019-03-23T09:29:20.056Z,64.50
2019-03-23T09:31:50.184Z,64.15
2019-03-23T09:34:20.243Z,64.03
2019-03-23T09:36:50.329Z,63.68
2019-03-23T09:39:20.455Z,63.79
2019-03-23T09:41:50.558Z,64.30
2019-03-23T09:44:20.614Z,63.70
2019-03-23T09:46:50.757Z,63.41
2019-03-23T09:49:22.080Z,62.87
2019-03-23T09:51:52.177Z,62.96
2019-03-23T09:54:22.272Z,63.08
2019-03-23T09:56:52.349Z,62.70
2019-03-23T09:59:22.440Z,62.99
2019-03-23T10:01:52.624Z,63.33
2019-03-23T10:04:22.725Z,62.88
2019-03-23T10:06:52.802Z,63.14
2019-03-23T10:09:22.926Z,62.32
2019-03-23T10:11:53.023Z,62.04
2019-03-23T10:14:23.152Z,61.70
2019-03-23T10:16:53.306Z,61.46
2019-03-23T10:19:23.381Z,61.29
2019-03-23T10:21:53.466Z,60.87
2019-03-23T10:24:23.607Z,60.87
2019-03-23T10:26:53.762Z,60.58
2019-03-23T10:29:23.817Z,60.23
2019-03-23T10:31:55.694Z,60.17
2019-03-23T10:34:25.672Z,59.92
2019-03-23T10:36:56.788Z,60.04
2019-03-23T10:39:26.884Z,59.52
2019-03-23T10:41:56.965Z,59.55
2019-03-23T10:44:27.035Z,59.57
2019-03-23T10:46:57.100Z,59.83
2019-03-23T10:49:27.164Z,60.20
2019-03-23T10:51:57.252Z,59.69
2019-03-23T10:54:27.319Z,59.53
2019-03-23T10:56:57.447Z,59.35
2019-03-23T10:59:28.096Z,59.88
2019-03-23T11:01:58.163Z,59.61
2019-03-23T11:04:28.264Z,59.65
2019-03-23T11:06:58.339Z,59.94
2019-03-23T11:09:29.391Z,59.18
2019-03-23T11:11:59.465Z,58.73
2019-03-23T11:14:29.539Z,58.65
2019-03-23T11:16:59.633Z,58.19
2019-03-23T11:19:29.718Z,57.93
2019-03-23T11:21:59.784Z,57.16
2019-03-23T11:24:29.844Z,57.35
2019-03-23T11:27:00.053Z,57.22
2019-03-23T11:29:30.109Z,56.58
2019-03-23T11:32:00.212Z,57.00
2019-03-23T11:34:30.303Z,57.17
2019-03-23T11:37:00.982Z,57.01
2019-03-23T11:39:31.066Z,56.54
2019-03-23T11:42:01.232Z,56.90
2019-03-23T11:44:31.316Z,56.71
2019-03-23T11:47:01.391Z,56.71
2019-03-23T11:49:31.473Z,57.30
2019-03-23T11:52:01.617Z,57.10
2019-03-23T11:54:31.680Z,56.74
2019-03-23T11:57:01.875Z,56.54
2019-03-23T11:59:31.989Z,57.24
2019-03-23T12:02:02.062Z,56.59
2019-03-23T12:04:32.224Z,56.65
2019-03-23T12:07:02.301Z,56.51
2019-03-23T12:09:32.384Z,56.63
2019-03-23T12:12:02.927Z,56.04
2019-03-23T12:14:33.012Z,55.85
2019-03-23T12:17:03.086Z,56.15
2019-03-23T12:19:33.186Z,57.69
2019-03-23T12:22:03.251Z,57.05
2019-03-23T12:24:33.328Z,57.55
2019-03-23T12:27:03.431Z,56.26
2019-03-23T12:29:33.495Z,56.56
2019-03-23T12:32:03.597Z,57.07
2019-03-23T12:34:33.678Z,57.16
2019-03-23T12:37:03.769Z,55.71
2019-03-23T12:39:33.932Z,55.52
2019-03-23T12:42:04.195Z,55.52
2019-03-23T12:44:34.267Z,55.29
2019-03-23T12:47:04.433Z,55.44
2019-03-23T12:49:34.565Z,55.47
2019-03-23T12:52:04.658Z,55.23
2019-03-23T12:54:34.710Z,56.01
2019-03-23T12:57:04.828Z,55.95
2019-03-23T12:59:34.932Z,55.40
2019-03-23T13:02:04.994Z,54.79
2019-03-23T13:04:35.085Z,54.45
2019-03-23T13:07:05.150Z,54.45
2019-03-23T13:09:35.198Z,54.85
2019-03-23T13:12:05.295Z,54.61
2019-03-23T13:14:35.403Z,54.83
2019-03-23T13:17:05.442Z,55.40
2019-03-23T13:19:35.534Z,55.66
2019-03-23T13:22:05.706Z,55.71
2019-03-23T13:24:35.771Z,55.75
2019-03-23T13:27:05.916Z,55.85
2019-03-23T13:29:35.967Z,55.88
2019-03-23T13:32:06.028Z,55.82
2019-03-23T13:34:36.117Z,55.19
2019-03-23T13:37:06.184Z,55.32
2019-03-23T13:39:36.258Z,55.38
2019-03-23T13:42:06.326Z,54.68
2019-03-23T13:44:36.411Z,54.86
2019-03-23T13:47:06.513Z,55.06
2019-03-23T13:49:36.585Z,54.45
2019-03-23T13:52:06.665Z,54.71
2019-03-23T13:54:36.743Z,54.45
2019-03-23T13:57:07.389Z,55.08
2019-03-23T13:59:37.451Z,56.03
2019-03-23T14:02:07.522Z,55.77
2019-03-23T14:04:37.583Z,55.44
2019-03-23T14:07:07.692Z,55.15
2019-03-23T14:09:37.782Z,54.91
2019-03-23T14:12:07.918Z,54.55
2019-03-23T14:14:37.987Z,54.88
2019-03-23T14:17:08.051Z,54.54
2019-03-23T14:19:38.228Z,55.29
2019-03-23T14:22:08.301Z,55.11
2019-03-23T14:24:38.391Z,55.08
2019-03-23T14:27:08.517Z,55.29
2019-03-23T14:29:38.619Z,55.25
2019-03-23T14:32:08.681Z,55.30
2019-03-23T14:34:38.743Z,55.84
2019-03-23T14:37:08.806Z,56.00
2019-03-23T14:39:38.868Z,56.05
2019-03-23T14:42:09.039Z,56.40
2019-03-23T14:44:39.103Z,56.71
2019-03-23T14:47:09.170Z,57.09
2019-03-23T14:49:39.234Z,56.86
2019-03-23T14:52:09.289Z,56.91
2019-03-23T14:54:40.386Z,56.89
2019-03-23T14:57:10.448Z,57.28
2019-03-23T14:59:40.533Z,57.51
2019-03-23T15:02:10.586Z,57.54
2019-03-23T15:04:40.685Z,57.75
2019-03-23T15:07:10.748Z,58.09
2019-03-23T15:09:40.833Z,58.39
2019-03-23T15:12:14.872Z,58.46
2019-03-23T15:14:42.757Z,58.37
2019-03-23T15:17:12.810Z,58.37
2019-03-23T15:19:42.933Z,58.44
2019-03-23T15:22:12.987Z,58.83
2019-03-23T15:24:43.101Z,58.67
2019-03-23T15:27:13.179Z,58.78
2019-03-23T15:29:44.342Z,58.91
2019-03-23T15:32:14.402Z,59.13
2019-03-23T15:34:44.454Z,59.60
2019-03-23T15:37:14.565Z,60.11
2019-03-23T15:39:44.654Z,60.41
2019-03-23T15:42:24.292Z,60.45
2019-03-23T15:44:46.580Z,61.15
2019-03-23T15:47:16.671Z,59.81
2019-03-23T15:49:46.757Z,59.79
2019-03-23T15:52:17.645Z,59.44
2019-03-23T15:54:48.675Z,59.80
2019-03-23T15:57:18.794Z,60.17
2019-03-23T15:59:48.923Z,60.74
2019-03-23T16:02:19.042Z,61.83
2019-03-23T16:04:49.108Z,61.46
2019-03-23T16:07:29.086Z,61.60
2019-03-23T16:09:51.015Z,62.30
2019-03-23T16:12:21.065Z,62.60
2019-03-23T16:14:51.169Z,62.04
2019-03-23T16:17:21.255Z,62.20
2019-03-23T16:19:51.335Z,62.15
2019-03-23T16:22:21.446Z,62.86
2019-03-23T16:24:51.524Z,63.90
2019-03-23T16:27:21.622Z,64.00
2019-03-23T16:29:51.700Z,64.66
2019-03-23T16:32:21.789Z,65.37
2019-03-23T16:34:51.855Z,67.78
2019-03-23T16:37:21.936Z,68.11
2019-03-23T16:39:52.005Z,68.43
2019-03-23T16:42:22.078Z,69.01
2019-03-23T16:44:52.184Z,69.52
2019-03-23T16:47:22.285Z,69.49
2019-03-23T16:49:52.375Z,69.89
2019-03-23T16:52:22.432Z,69.53
2019-03-23T16:54:52.565Z,69.38
2019-03-23T16:57:22.633Z,69.19
2019-03-23T16:59:52.735Z,69.07
2019-03-23T17:02:22.826Z,68.68
2019-03-23T17:04:53.390Z,68.48
2019-03-23T17:07:23.468Z,68.47
2019-03-23T17:10:05.766Z,68.33
2019-03-23T17:12:35.910Z,68.34
2019-03-23T17:15:06.795Z,68.36
2019-03-23T17:17:36.907Z,68.64
2019-03-23T17:20:07.468Z,69.12
2019-03-23T17:22:38.310Z,69.50
2019-03-23T17:25:08.535Z,69.47
2019-03-23T17:27:38.734Z,69.77
2019-03-23T17:30:11.048Z,69.98
2019-03-23T17:32:41.114Z,70.93
2019-03-23T17:35:11.238Z,71.29
2019-03-23T17:37:41.314Z,71.39
2019-03-23T17:40:11.482Z,70.63
2019-03-23T17:42:41.614Z,69.96
2019-03-23T17:45:11.857Z,70.63
2019-03-23T17:47:41.913Z,69.69
2019-03-23T17:50:12.084Z,69.31
2019-03-23T17:52:42.268Z,69.52
2019-03-23T17:55:12.401Z,69.22
2019-03-23T17:57:42.547Z,68.79
2019-03-23T18:00:12.825Z,68.31
2019-03-23T18:02:43.003Z,67.83
2019-03-23T18:05:13.076Z,67.86
2019-03-23T18:07:43.243Z,67.69
2019-03-23T18:10:13.556Z,67.65
2019-03-23T18:12:43.657Z,67.58
2019-03-23T18:15:13.817Z,66.74
2019-03-23T18:17:43.880Z,66.76
2019-03-23T18:20:14.068Z,66.35
2019-03-23T18:22:44.140Z,66.29
2019-03-23T18:25:15.379Z,65.70
2019-03-23T18:27:45.593Z,65.52
2019-03-23T18:30:34.944Z,65.14
2019-03-23T18:33:05.513Z,65.16
2019-03-23T18:35:35.755Z,64.99
2019-03-23T18:38:06.312Z,64.58
2019-03-23T18:40:36.762Z,63.98
2019-03-23T18:43:07.036Z,63.99
2019-03-23T18:45:38.127Z,64.05
2019-03-23T18:48:08.311Z,63.66
2019-03-23T18:50:38.415Z,64.04
2019-03-23T18:53:08.591Z,64.07
2019-03-23T18:55:39.033Z,64.07
2019-03-23T18:58:09.210Z,64.16
2019-03-23T19:00:43.624Z,63.94
2019-03-23T19:03:13.720Z,64.06
2019-03-23T19:05:43.833Z,64.21
2019-03-23T19:08:14.885Z,63.44
2019-03-23T19:10:44.979Z,63.46
2019-03-23T19:13:15.098Z,63.35
2019-03-23T19:15:45.329Z,62.67
2019-03-23T19:18:15.411Z,62.80
2019-03-23T19:20:46.482Z,62.66
2019-03-23T19:23:16.614Z,62.60
2019-03-23T19:25:46.709Z,62.46
2019-03-23T19:28:16.898Z,61.25
2019-03-23T19:30:46.992Z,60.72
2019-03-23T19:33:17.104Z,59.92
2019-03-23T19:35:47.190Z,60.40
2019-03-23T19:38:18.269Z,60.22
2019-03-23T19:40:48.488Z,59.27
2019-03-23T19:43:18.561Z,59.52
2019-03-23T19:45:48.749Z,59.80
2019-03-23T19:48:18.830Z,60.39
2019-03-23T19:50:49.319Z,60.59
2019-03-23T19:53:19.405Z,60.50
2019-03-23T19:55:49.627Z,60.75
2019-03-23T19:58:19.764Z,60.94
2019-03-23T20:00:49.919Z,61.16
2019-03-23T20:03:20.028Z,61.20
2019-03-23T20:05:50.176Z,61.13
2019-03-23T20:08:21.245Z,60.76
2019-03-23T20:10:51.428Z,60.66
2019-03-23T20:13:21.794Z,60.79
2019-03-23T20:15:51.907Z,60.73
2019-03-23T20:18:21.973Z,60.99
2019-03-23T20:20:52.135Z,61.49
2019-03-23T20:23:22.245Z,61.91
2019-03-23T20:25:52.452Z,62.32
2019-03-23T20:28:22.557Z,63.17
2019-03-23T20:30:52.647Z,63.72
2019-03-23T20:33:22.767Z,63.84
2019-03-23T20:35:52.855Z,63.94
2019-03-23T20:38:22.956Z,63.87
2019-03-23T20:40:53.122Z,63.72
2019-03-23T20:43:23.210Z,63.21
2019-03-23T20:45:53.356Z,62.97
2019-03-23T20:48:23.444Z,62.61
2019-03-23T20:50:53.697Z,62.30
2019-03-23T20:53:23.751Z,61.98
2019-03-23T20:55:53.910Z,61.64
2019-03-23T20:58:24.048Z,61.79
2019-03-23T21:00:54.149Z,62.05
2019-03-23T21:06:07.903Z,62.09
2019-03-23T21:08:38.011Z,62.04
2019-03-23T21:11:08.290Z,62.10
2019-03-23T21:13:38.478Z,62.16
2019-03-23T21:16:08.562Z,62.18
2019-03-23T21:18:38.657Z,61.63
2019-03-23T21:21:08.728Z,61.83
2019-03-23T21:23:38.796Z,61.91
2019-03-23T21:26:08.848Z,61.47
2019-03-23T21:28:39.000Z,61.13
2019-03-23T21:31:09.127Z,60.85
2019-03-23T21:33:39.256Z,60.64
2019-03-23T21:36:09.398Z,60.29
2019-03-23T21:38:39.561Z,60.04
2019-03-23T21:41:09.764Z,59.79
2019-03-23T21:43:40.069Z,59.42
2019-03-23T21:46:10.246Z,59.51
2019-03-23T21:48:41.410Z,59.46
2019-03-23T21:51:11.516Z,59.24
2019-03-23T21:53:41.872Z,59.39
2019-03-23T21:56:11.980Z,59.68
2019-03-23T21:58:43.448Z,59.55
2019-03-23T22:01:13.517Z,59.50
2019-03-23T22:03:43.586Z,59.60
2019-03-23T22:06:13.654Z,59.64
2019-03-23T22:08:43.709Z,59.82
2019-03-23T22:11:13.753Z,59.86
2019-03-23T22:13:43.810Z,60.19
2019-03-23T22:16:13.849Z,60.60
2019-03-23T22:18:43.931Z,60.49
2019-03-23T22:21:13.979Z,60.41
2019-03-23T22:23:44.064Z,60.16
2019-03-23T22:26:14.181Z,59.97
2019-03-23T22:28:44.247Z,60.42
2019-03-23T22:31:14.287Z,60.57
2019-03-23T22:33:44.363Z,60.57
2019-03-23T22:36:14.407Z,60.87
2019-03-23T22:38:44.574Z,60.47
2019-03-23T22:41:14.615Z,60.72
2019-03-23T22:43:44.686Z,60.72
2019-03-23T22:46:14.744Z,61.15
2019-03-23T22:48:44.803Z,61.01
2019-03-23T22:51:14.864Z,61.41
2019-03-23T22:53:44.963Z,61.08
2019-03-23T22:56:15.014Z,60.97
2019-03-23T22:58:45.211Z,61.10
2019-03-23T23:01:15.432Z,61.27
2019-03-23T23:03:45.495Z,61.45
2019-03-23T23:06:15.558Z,61.22
2019-03-23T23:08:45.612Z,61.35
2019-03-23T23:11:15.697Z,61.01
2019-03-23T23:13:45.762Z,61.09
2019-03-23T23:16:16.808Z,61.35
2019-03-23T23:18:47.834Z,61.04
2019-03-23T23:21:17.915Z,61.03
2019-03-23T23:23:47.969Z,61.10
2019-03-23T23:26:18.056Z,61.02
2019-03-23T23:28:48.118Z,60.64
2019-03-23T23:31:18.211Z,60.54
2019-03-23T23:33:48.270Z,60.54
2019-03-23T23:36:18.345Z,60.25
2019-03-23T23:38:48.400Z,60.27
2019-03-23T23:41:18.479Z,60.05
2019-03-23T23:43:48.531Z,60.27
2019-03-23T23:46:18.617Z,60.28
2019-03-23T23:48:51.393Z,60.33
2019-03-23T23:51:20.435Z,60.29
2019-03-23T23:53:50.495Z,60.27
2019-03-23T23:56:20.662Z,60.42
2019-03-23T23:58:50.744Z,60.38
